Time;durP1;ratioP1;P1;durP2;ratioP2;P2;SDS_P1;SDS_P2;PMS_P1;PMS_P2;Temp;Humidity;BMP_temperature;BMP_pressure;BME280_temperature;BME280_humidity;BME280_pressure;Samples;Min_cycle;Max_cycle;Signal;HPM_P1;HPM_P2
2024/03/18 00:02:28;;;;;;;;;;;;;;;19.75;40.76;100748.02;103291;1288;62223;-77
2024/03/18 00:04:54;;;;;;;;;;;;;;;19.74;40.81;100751.98;103182;1289;62226;-79
2024/03/18 00:07:20;;;;;;;;;;;;;;;19.74;40.74;100751.27;103220;1289;62140;-78
2024/03/18 00:09:46;;;;;;;;;;;;;;;19.74;40.69;100742.39;103241;1291;62232;-78
2024/03/18 00:12:11;;;;;;;;;;;;;;;19.73;40.73;100740.96;103234;1289;62204;-80
2024/03/18 00:14:37;;;;;;;;;;;;;;;19.73;40.64;100739.73;103319;1289;62207;-77
2024/03/18 00:17:05;;;;;;;;;;;;;;;19.74;40.53;100738.45;103275;1289;62226;-78
2024/03/18 00:19:32;;;;;;;;;;;;;;;19.74;40.56;100734.71;103192;1288;62335;-78
2024/03/18 00:21:57;;;;;;;;;;;;;;;19.73;40.61;100730.64;103159;1287;62236;-79
2024/03/18 00:24:23;;;;;;;;;;;;;;;19.73;40.56;100728.69;103442;1289;62686;-78
2024/03/18 00:26:48;;;;;;;;;;;;;;;19.73;40.71;100724.77;103166;1294;62196;-78
2024/03/18 00:29:14;;;;;;;;;;;;;;;19.72;40.79;100724.60;103263;1289;63374;-78
2024/03/18 00:31:40;;;;;;;;;;;;;;;19.73;40.66;100721.55;103317;1288;62187;-78
2024/03/18 00:34:05;;;;;;;;;;;;;;;19.72;40.79;100720.14;103235;1289;62178;-79
2024/03/18 00:36:31;;;;;;;;;;;;;;;19.72;40.65;100721.59;103252;1291;63481;-81
2024/03/18 00:38:56;;;;;;;;;;;;;;;19.72;40.80;100719.45;103233;1288;62193;-78
2024/03/18 00:44:07;;;;;;;;;;;;;;;19.72;40.71;100707.88;103180;1291;74480;-77
2024/03/18 00:46:33;;;;;;;;;;;;;;;19.71;40.61;100704.68;103331;1289;62189;-78
2024/03/18 00:49:01;;;;;;;;;;;;;;;19.71;40.44;100698.47;103247;1289;63700;-79
2024/03/18 00:51:26;;;;;;;;;;;;;;;19.71;40.58;100698.11;102858;1289;71446;-78
2024/03/18 00:53:52;;;;;;;;;;;;;;;19.71;40.68;100695.09;103184;1289;63466;-78
2024/03/18 00:56:18;;;;;;;;;;;;;;;19.71;40.70;100696.33;103133;1289;63467;-78
2024/03/18 00:58:44;;;;;;;;;;;;;;;19.70;40.64;100700.63;103314;1291;62143;-79
2024/03/18 01:01:11;;;;;;;;;;;;;;;19.70;40.51;100698.53;103251;1289;62197;-79
2024/03/18 01:03:37;;;;;;;;;;;;;;;19.70;40.57;100704.94;103309;1289;62479;-77
2024/03/18 01:06:03;;;;;;;;;;;;;;;19.70;40.61;100700.50;103097;1289;62174;-78
2024/03/18 01:08:29;;;;;;;;;;;;;;;19.70;40.62;100699.23;103199;1289;62167;-78
2024/03/18 01:10:54;;;;;;;;;;;;;;;19.70;40.57;100694.95;103238;1289;62198;-78
2024/03/18 01:13:21;;;;;;;;;;;;;;;19.70;40.49;100692.66;103274;1288;71359;-78
2024/03/18 01:15:47;;;;;;;;;;;;;;;19.70;40.64;100692.66;103217;1289;62202;-78
2024/03/18 01:18:13;;;;;;;;;;;;;;;19.69;40.69;100692.86;103221;1289;62171;-79
2024/03/18 01:20:38;;;;;;;;;;;;;;;19.69;40.47;100690.95;103174;1288;62277;-79
2024/03/18 01:23:06;;;;;;;;;;;;;;;19.69;40.62;100693.06;103242;1287;62343;-78
2024/03/18 01:25:32;;;;;;;;;;;;;;;19.69;40.72;100693.43;103335;1289;62366;-78
2024/03/18 01:27:58;;;;;;;;;;;;;;;19.69;40.62;100700.23;103181;1294;62117;-79
2024/03/18 01:30:23;;;;;;;;;;;;;;;19.69;40.71;100702.53;103276;1286;62270;-78
2024/03/18 01:32:49;;;;;;;;;;;;;;;19.69;40.55;100703.58;103235;1287;62220;-79
2024/03/18 01:35:15;;;;;;;;;;;;;;;19.69;40.55;100703.80;103352;1289;62754;-78
2024/03/18 01:37:41;;;;;;;;;;;;;;;19.68;40.63;100710.62;103277;1289;75135;-80
2024/03/18 01:40:09;;;;;;;;;;;;;;;19.68;40.64;100711.49;103353;1286;62177;-78
2024/03/18 01:42:34;;;;;;;;;;;;;;;19.68;40.64;100715.81;103234;1289;62262;-78
2024/03/18 01:45:00;;;;;;;;;;;;;;;19.68;40.68;100719.74;103268;1289;63402;-78
2024/03/18 01:47:26;;;;;;;;;;;;;;;19.68;40.63;100721.18;103230;1291;62124;-78
2024/03/18 01:49:52;;;;;;;;;;;;;;;19.68;40.63;100718.87;103198;1288;62373;-78
2024/03/18 01:52:17;;;;;;;;;;;;;;;19.67;40.67;100718.89;102994;1289;62982;-78
2024/03/18 01:54:43;;;;;;;;;;;;;;;19.67;40.75;100721.39;103249;1288;62217;-78
2024/03/18 01:57:09;;;;;;;;;;;;;;;19.67;40.65;100724.81;103245;1289;72746;-78
2024/03/18 01:59:35;;;;;;;;;;;;;;;19.66;40.78;100727.70;103292;1291;62129;-78
2024/03/18 02:02:01;;;;;;;;;;;;;;;19.67;40.65;100730.89;103270;1289;62366;-78
2024/03/18 02:04:27;;;;;;;;;;;;;;;19.66;40.58;100730.02;103284;1289;62484;-77
2024/03/18 02:06:54;;;;;;;;;;;;;;;19.66;40.64;100725.58;103182;1294;62114;-79
2024/03/18 02:09:19;;;;;;;;;;;;;;;19.66;40.82;100727.73;103163;1294;62148;-79
2024/03/18 02:11:45;;;;;;;;;;;;;;;19.66;40.64;100721.47;103163;1289;62387;-79
2024/03/18 02:14:12;;;;;;;;;;;;;;;19.66;40.78;100725.58;103368;1291;63436;-78
2024/03/18 02:16:37;;;;;;;;;;;;;;;19.66;40.73;100726.33;103164;1289;62150;-78
2024/03/18 02:19:04;;;;;;;;;;;;;;;19.66;40.60;100723.29;103241;1289;62283;-78
2024/03/18 02:21:29;;;;;;;;;;;;;;;19.66;40.66;100725.44;102664;1288;696250;-78
2024/03/18 02:23:55;;;;;;;;;;;;;;;19.65;40.66;100730.46;103190;1293;62161;-78
2024/03/18 02:26:20;;;;;;;;;;;;;;;19.65;40.75;100735.48;103297;1289;62201;-79
2024/03/18 02:28:46;;;;;;;;;;;;;;;19.65;40.63;100747.09;103222;1293;62715;-78
2024/03/18 02:31:12;;;;;;;;;;;;;;;19.65;40.59;100751.73;103303;1291;72290;-78
2024/03/18 02:33:38;;;;;;;;;;;;;;;19.65;40.61;100754.77;103296;1289;63481;-78
2024/03/18 02:36:04;;;;;;;;;;;;;;;19.64;40.74;100755.15;103200;1288;63386;-78
2024/03/18 02:38:30;;;;;;;;;;;;;;;19.64;40.60;100748.73;103275;1289;62201;-80
2024/03/18 02:40:56;;;;;;;;;;;;;;;19.64;40.55;100757.14;103332;1291;62274;-79
2024/03/18 02:43:21;;;;;;;;;;;;;;;19.64;40.69;100757.15;103290;1289;63367;-80
2024/03/18 02:45:47;;;;;;;;;;;;;;;19.64;40.62;100761.22;103298;1291;62195;-80
2024/03/18 02:48:14;;;;;;;;;;;;;;;19.64;40.53;100759.84;103266;1289;62201;-77
2024/03/18 02:50:39;;;;;;;;;;;;;;;19.63;40.68;100760.58;103189;1289;63445;-79
2024/03/18 02:53:06;;;;;;;;;;;;;;;19.64;40.67;100766.80;103208;1288;63363;-78
2024/03/18 02:55:31;;;;;;;;;;;;;;;19.63;40.63;100766.83;103373;1291;62206;-78
2024/03/18 02:57:57;;;;;;;;;;;;;;;19.63;40.60;100767.77;103272;1288;63423;-78
2024/03/18 03:00:23;;;;;;;;;;;;;;;19.63;40.58;100762.92;103178;1288;62571;-78
2024/03/18 03:02:48;;;;;;;;;;;;;;;19.63;40.70;100763.11;103419;1288;62113;-78
2024/03/18 03:05:15;;;;;;;;;;;;;;;19.62;40.62;100762.23;103273;1287;72421;-78
2024/03/18 03:07:41;;;;;;;;;;;;;;;19.63;40.71;100764.56;103306;1288;76298;-78
2024/03/18 03:10:07;;;;;;;;;;;;;;;19.62;40.50;100764.77;103329;1291;62189;-78
2024/03/18 03:12:33;;;;;;;;;;;;;;;19.62;40.68;100767.83;102917;1292;63363;-78
2024/03/18 03:14:59;;;;;;;;;;;;;;;19.62;40.67;100769.04;103241;1288;62771;-79
2024/03/18 03:17:24;;;;;;;;;;;;;;;19.63;40.69;100771.15;103193;1288;62283;-77
2024/03/18 03:19:53;;;;;;;;;;;;;;;19.62;40.68;100772.13;103256;1289;63328;-78
2024/03/18 03:22:21;;;;;;;;;;;;;;;19.62;40.64;100774.41;103173;1289;63365;-81
2024/03/18 03:24:50;;;;;;;;;;;;;;;19.62;40.67;100776.75;103252;1288;72545;-79
2024/03/18 03:27:16;;;;;;;;;;;;;;;19.61;40.57;100776.60;103168;1288;75343;-79
2024/03/18 03:29:42;;;;;;;;;;;;;;;19.62;40.73;100778.02;103307;1287;62204;-78
2024/03/18 03:32:10;;;;;;;;;;;;;;;19.62;40.68;100782.66;103265;1287;62133;-78
2024/03/18 03:34:37;;;;;;;;;;;;;;;19.60;40.58;100784.31;103251;1289;72740;-78
2024/03/18 03:37:03;;;;;;;;;;;;;;;19.61;40.79;100785.36;103337;1289;75329;-78
2024/03/18 03:39:29;;;;;;;;;;;;;;;19.60;40.51;100784.31;103240;1287;63370;-79
2024/03/18 03:41:55;;;;;;;;;;;;;;;19.60;40.62;100782.55;103288;1289;62095;-77
2024/03/18 03:44:21;;;;;;;;;;;;;;;19.60;40.74;100780.04;103060;1294;62199;-78
2024/03/18 03:46:50;;;;;;;;;;;;;;;19.60;40.67;100779.67;103314;1289;63472;-78
2024/03/18 03:49:16;;;;;;;;;;;;;;;19.60;40.74;100778.28;103318;1289;62793;-78
2024/03/18 03:51:42;;;;;;;;;;;;;;;19.60;40.57;100778.65;103402;1288;62113;-78
2024/03/18 03:54:09;;;;;;;;;;;;;;;19.60;40.52;100778.11;103283;1288;62299;-79
2024/03/18 03:56:34;;;;;;;;;;;;;;;19.59;40.68;100779.37;103172;1287;63515;-78
2024/03/18 03:59:00;;;;;;;;;;;;;;;19.59;40.54;100778.48;103203;1289;62186;-78
2024/03/18 04:01:26;;;;;;;;;;;;;;;19.59;40.51;100774.58;103299;1289;62190;-78
2024/03/18 04:03:52;;;;;;;;;;;;;;;19.59;40.65;100777.05;103221;1289;63391;-79
2024/03/18 04:06:17;;;;;;;;;;;;;;;19.59;40.69;100779.77;103242;1289;63354;-78
2024/03/18 04:08:43;;;;;;;;;;;;;;;19.59;40.65;100782.42;103305;1289;75107;-78
2024/03/18 04:11:09;;;;;;;;;;;;;;;19.59;40.55;100780.80;103292;1289;63390;-78
2024/03/18 04:13:34;;;;;;;;;;;;;;;19.58;40.50;100780.70;103286;1288;62785;-78
2024/03/18 04:16:00;;;;;;;;;;;;;;;19.58;40.54;100786.98;103191;1292;62266;-79
2024/03/18 04:18:25;;;;;;;;;;;;;;;19.59;40.40;100785.50;103254;1289;62264;-78
2024/03/18 04:20:53;;;;;;;;;;;;;;;19.58;40.66;100787.34;103279;1289;75275;-78
2024/03/18 04:23:19;;;;;;;;;;;;;;;19.57;40.56;100784.51;103220;1289;63311;-80
2024/03/18 04:25:45;;;;;;;;;;;;;;;19.58;40.58;100784.46;103297;1291;62193;-78
2024/03/18 04:28:10;;;;;;;;;;;;;;;19.58;40.65;100783.05;103143;1289;62213;-78
2024/03/18 04:30:41;;;;;;;;;;;;;;;19.57;40.48;100785.58;103197;1289;63246;-78
2024/03/18 04:33:07;;;;;;;;;;;;;;;19.57;40.62;100788.80;103072;1289;62121;-78
2024/03/18 04:35:32;;;;;;;;;;;;;;;19.57;40.39;100791.30;103397;1289;62281;-78
2024/03/18 04:37:58;;;;;;;;;;;;;;;19.57;40.55;100792.90;103116;1289;63444;-78
2024/03/18 04:40:24;;;;;;;;;;;;;;;19.57;40.59;100791.31;103304;1287;62152;-78
2024/03/18 04:42:49;;;;;;;;;;;;;;;19.57;40.36;100791.86;103132;1289;62127;-80
2024/03/18 04:45:16;;;;;;;;;;;;;;;19.57;40.29;100798.45;103221;1289;62296;-78
2024/03/18 04:47:54;;;;;;;;;;;;;;;19.57;40.38;100802.02;103237;1292;62178;-78
2024/03/18 04:50:22;;;;;;;;;;;;;;;19.56;40.41;100803.68;103241;1289;72338;-79
2024/03/18 04:52:55;;;;;;;;;;;;;;;19.56;40.46;100805.66;103337;1289;75417;-79
2024/03/18 04:55:21;;;;;;;;;;;;;;;19.56;40.37;100811.36;103248;1289;62214;-79
2024/03/18 04:57:49;;;;;;;;;;;;;;;19.57;40.49;100815.08;103370;1289;62117;-79
2024/03/18 05:00:16;;;;;;;;;;;;;;;19.54;40.38;100820.59;103287;1291;71529;-78
2024/03/18 05:02:42;;;;;;;;;;;;;;;19.52;40.31;100823.80;103230;1288;75042;-79
2024/03/18 05:05:09;;;;;;;;;;;;;;;19.48;40.27;100827.41;103203;1294;63376;-79
2024/03/18 05:07:34;;;;;;;;;;;;;;;19.45;40.24;100827.11;103209;1288;62460;-78
2024/03/18 05:10:00;;;;;;;;;;;;;;;19.42;40.30;100832.77;103264;1289;62164;-80
2024/03/18 05:12:26;;;;;;;;;;;;;;;19.39;40.10;100834.77;103227;1291;62199;-77
2024/03/18 05:14:51;;;;;;;;;;;;;;;19.35;40.01;100835.59;103090;1289;62265;-80
2024/03/18 05:17:17;;;;;;;;;;;;;;;19.29;39.86;100841.33;103186;1289;62253;-79
2024/03/18 05:19:43;;;;;;;;;;;;;;;19.19;39.73;100844.63;103366;1291;62101;-78
2024/03/18 05:22:10;;;;;;;;;;;;;;;19.13;39.46;100844.08;102841;1289;62196;-79
2024/03/18 05:24:37;;;;;;;;;;;;;;;19.10;39.52;100848.70;103028;1289;62807;-79
2024/03/18 05:27:02;;;;;;;;;;;;;;;19.05;39.29;100845.96;103351;1287;62232;-79
2024/03/18 05:29:28;;;;;;;;;;;;;;;18.94;39.02;100850.76;103224;1289;63519;-79
2024/03/18 05:31:54;;;;;;;;;;;;;;;18.88;38.88;100855.90;103271;1289;62203;-78
2024/03/18 05:34:19;;;;;;;;;;;;;;;18.84;38.89;100859.02;103498;1288;62220;-79
2024/03/18 05:36:45;;;;;;;;;;;;;;;18.85;38.88;100856.97;103613;1287;62188;-78
2024/03/18 05:39:11;;;;;;;;;;;;;;;18.86;38.93;100858.88;103505;1288;61984;-79
2024/03/18 05:41:37;;;;;;;;;;;;;;;18.87;38.74;100855.80;103521;1289;62120;-81
2024/03/18 05:44:03;;;;;;;;;;;;;;;18.87;38.75;100861.86;103417;1289;62188;-79
2024/03/18 05:46:29;;;;;;;;;;;;;;;18.87;38.55;100864.16;103870;1291;62414;-81
2024/03/18 05:48:55;;;;;;;;;;;;;;;18.87;38.43;100864.03;103743;1289;62142;-79
2024/03/18 05:51:20;;;;;;;;;;;;;;;18.86;38.45;100864.23;104258;1288;62110;-78
2024/03/18 05:53:46;;;;;;;;;;;;;;;18.87;38.46;100863.66;104399;1289;59772;-81
2024/03/18 05:56:11;;;;;;;;;;;;;;;18.85;38.53;100859.67;104324;1291;60021;-79
2024/03/18 05:58:40;;;;;;;;;;;;;;;18.84;38.35;100859.56;104458;1291;62140;-81
2024/03/18 06:01:12;;;;;;;;;;;;;;;18.83;38.44;100857.27;104654;1291;61946;-80
2024/03/18 06:03:39;;;;;;;;;;;;;;;18.76;38.26;100863.96;104572;1291;62133;-82
2024/03/18 06:06:09;;;;;;;;;;;;;;;18.58;38.19;100858.95;104691;1291;73412;-80
2024/03/18 06:08:35;;;;;;;;;;;;;;;18.56;38.46;100861.95;104181;1291;75072;-78
2024/03/18 06:11:01;;;;;;;;;;;;;;;18.58;38.41;100864.85;104036;1299;62273;-78
2024/03/18 06:13:27;;;;;;;;;;;;;;;18.62;38.48;100867.10;104258;1291;62184;-76
2024/03/18 06:16:00;;;;;;;;;;;;;;;18.65;38.34;100873.35;104014;1291;73631;-78
2024/03/18 06:18:25;;;;;;;;;;;;;;;18.69;38.45;100880.40;103939;1291;76351;-78
2024/03/18 06:20:53;;;;;;;;;;;;;;;18.73;38.39;100880.70;104316;1292;62226;-78
2024/03/18 06:23:22;;;;;;;;;;;;;;;18.75;38.23;100879.15;104074;1294;60090;-76
2024/03/18 06:25:57;;;;;;;;;;;;;;;18.78;38.37;100884.88;103738;1294;72610;-77
2024/03/18 06:28:28;;;;;;;;;;;;;;;18.81;38.39;100879.56;103763;1294;75119;-77
2024/03/18 06:30:55;;;;;;;;;;;;;;;18.82;38.20;100879.46;103896;1294;62653;-77
2024/03/18 06:33:21;;;;;;;;;;;;;;;18.83;38.27;100882.05;103614;1294;60543;-80
2024/03/18 06:35:47;;;;;;;;;;;;;;;18.85;38.05;100877.17;103551;1295;72362;-79
2024/03/18 06:38:13;;;;;;;;;;;;;;;18.86;38.05;100874.75;103724;1294;62186;-79
2024/03/18 06:40:41;;;;;;;;;;;;;;;18.88;38.00;100870.18;103993;1294;62197;-80
2024/03/18 06:43:07;;;;;;;;;;;;;;;18.91;37.87;100866.66;104000;1294;62280;-78
2024/03/18 06:45:35;;;;;;;;;;;;;;;18.92;37.96;100861.56;103443;1295;62362;-77
2024/03/18 06:48:02;;;;;;;;;;;;;;;18.94;37.90;100860.39;103607;1294;75435;-79
2024/03/18 06:50:28;;;;;;;;;;;;;;;18.96;37.97;100858.32;103695;1300;62257;-76
2024/03/18 06:52:54;;;;;;;;;;;;;;;18.97;37.92;100857.39;105206;1295;60351;-78
2024/03/18 06:55:19;;;;;;;;;;;;;;;18.82;37.50;100854.48;103882;1292;62131;-76
2024/03/18 06:57:45;;;;;;;;;;;;;;;18.45;37.37;100850.10;104449;1291;60020;-80
2024/03/18 07:00:11;;;;;;;;;;;;;;;18.38;37.85;100854.42;104302;1292;63686;-79
2024/03/18 07:02:36;;;;;;;;;;;;;;;18.45;37.90;100858.87;104370;1292;59983;-80
2024/03/18 07:05:02;;;;;;;;;;;;;;;18.50;37.94;100860.67;104872;1291;62060;-82
2024/03/18 07:07:28;;;;;;;;;;;;;;;18.51;37.81;100863.83;104614;1292;62106;-79
2024/03/18 07:09:53;;;;;;;;;;;;;;;18.47;37.80;100866.56;104549;1291;64318;-79
2024/03/18 07:12:19;;;;;;;;;;;;;;;18.48;38.02;100866.85;104556;1297;60035;-78
2024/03/18 07:14:47;;;;;;;;;;;;;;;18.51;37.84;100868.81;104616;1292;62101;-79
2024/03/18 07:17:14;;;;;;;;;;;;;;;18.55;37.83;100867.87;104505;1295;62118;-79
2024/03/18 07:19:39;;;;;;;;;;;;;;;18.60;37.83;100871.30;103960;1296;62091;-78
2024/03/18 07:22:06;;;;;;;;;;;;;;;18.65;37.69;100872.30;104336;1291;62011;-79
2024/03/18 07:24:32;;;;;;;;;;;;;;;18.69;37.68;100870.10;104091;1291;62585;-81
2024/03/18 07:26:58;;;;;;;;;;;;;;;18.72;37.46;100869.73;104304;1291;62212;-80
2024/03/18 07:29:24;;;;;;;;;;;;;;;18.74;37.51;100873.85;104570;1291;61916;-79
2024/03/18 07:31:56;;;;;;;;;;;;;;;18.78;37.33;100879.92;104490;1291;61934;-78
2024/03/18 07:34:24;;;;;;;;;;;;;;;18.81;37.41;100878.66;104458;1291;61975;-80
2024/03/18 07:36:50;;;;;;;;;;;;;;;18.83;37.29;100879.91;104350;1291;72670;-79
2024/03/18 07:39:16;;;;;;;;;;;;;;;18.87;37.25;100881.86;104399;1292;60370;-80
2024/03/18 07:41:43;;;;;;;;;;;;;;;18.90;37.22;100878.86;104390;1291;62223;-78
2024/03/18 07:44:08;;;;;;;;;;;;;;;18.93;37.21;100881.17;104499;1291;62158;-79
2024/03/18 07:46:34;;;;;;;;;;;;;;;18.96;37.11;100878.86;104385;1292;62225;-80
2024/03/18 07:48:59;;;;;;;;;;;;;;;18.97;37.15;100873.95;104796;1291;62195;-79
2024/03/18 07:51:26;;;;;;;;;;;;;;;18.98;37.13;100869.45;104667;1291;62076;-80
2024/03/18 07:53:52;;;;;;;;;;;;;;;18.98;37.02;100863.59;105884;1291;59944;-80
2024/03/18 07:56:17;;;;;;;;;;;;;;;18.88;36.74;100866.45;105881;1292;60401;-81
2024/03/18 07:58:43;;;;;;;;;;;;;;;18.75;36.95;100861.19;105905;1291;60290;-80
2024/03/18 08:01:11;;;;;;;;;;;;;;;18.66;36.92;100861.54;105892;1292;61065;-80
2024/03/18 08:03:37;;;;;;;;;;;;;;;18.68;37.06;100856.59;105809;1291;60075;-80
2024/03/18 08:06:08;;;;;;;;;;;;;;;18.75;37.27;100857.79;105930;1291;59884;-81
2024/03/18 08:08:34;;;;;;;;;;;;;;;18.80;37.33;100852.13;105944;1295;73152;-80
2024/03/18 08:11:00;;;;;;;;;;;;;;;18.85;37.36;100851.27;105894;1291;60292;-81
2024/03/18 08:13:25;;;;;;;;;;;;;;;18.93;37.49;100842.98;105944;1291;60314;-80
2024/03/18 08:15:51;;;;;;;;;;;;;;;19.01;37.68;100842.86;105922;1291;60059;-81
2024/03/18 08:18:16;;;;;;;;;;;;;;;19.08;37.54;100851.86;105933;1291;59893;-80
2024/03/18 08:20:42;;;;;;;;;;;;;;;19.15;37.64;100853.42;105882;1291;73692;-81
2024/03/18 08:23:08;;;;;;;;;;;;;;;19.21;37.66;100846.64;105936;1291;60225;-81
2024/03/18 08:25:34;;;;;;;;;;;;;;;19.27;37.66;100846.79;105907;1292;60172;-81
2024/03/18 08:28:00;;;;;;;;;;;;;;;19.33;37.65;100847.47;105898;1291;60572;-80
2024/03/18 08:30:26;;;;;;;;;;;;;;;19.39;37.59;100843.73;105884;1291;60119;-81
2024/03/18 08:32:51;;;;;;;;;;;;;;;19.44;37.60;100842.34;105937;1291;60581;-80
2024/03/18 08:35:17;;;;;;;;;;;;;;;19.49;37.40;100840.78;104548;1291;62191;-80
2024/03/18 08:37:42;;;;;;;;;;;;;;;19.53;37.52;100840.30;104068;1292;62072;-80
2024/03/18 08:40:09;;;;;;;;;;;;;;;19.57;37.37;100839.13;104209;1296;62201;-80
2024/03/18 08:42:35;;;;;;;;;;;;;;;19.61;37.46;100834.63;104114;1292;62202;-80
2024/03/18 08:45:01;;;;;;;;;;;;;;;19.64;37.34;100826.23;104139;1295;60162;-80
2024/03/18 08:47:26;;;;;;;;;;;;;;;19.67;37.37;100829.99;104274;1293;62164;-79
2024/03/18 08:49:52;;;;;;;;;;;;;;;19.69;37.21;100826.42;104044;1297;62493;-79
2024/03/18 08:52:17;;;;;;;;;;;;;;;19.71;37.19;100825.92;104357;1292;62111;-80
2024/03/18 08:54:43;;;;;;;;;;;;;;;19.74;37.10;100821.49;104450;1297;74653;-80
2024/03/18 08:57:09;;;;;;;;;;;;;;;19.73;37.11;100822.77;104278;1294;62168;-80
2024/03/18 08:59:37;;;;;;;;;;;;;;;19.72;36.95;100817.29;104589;1292;62120;-79
2024/03/18 09:02:02;;;;;;;;;;;;;;;19.72;36.90;100820.67;104443;1292;63536;-78
2024/03/18 09:04:28;;;;;;;;;;;;;;;19.73;37.19;100816.50;104333;1299;62212;-79
2024/03/18 09:06:53;;;;;;;;;;;;;;;19.76;37.61;100812.91;103706;1300;62148;-81
2024/03/18 09:09:20;;;;;;;;;;;;;;;19.82;37.73;100803.30;104080;1295;62201;-80
2024/03/18 09:11:46;;;;;;;;;;;;;;;19.85;38.21;100799.69;104253;1296;62160;-80
2024/03/18 09:14:11;;;;;;;;;;;;;;;19.87;38.08;100802.98;104009;1300;62054;-81
2024/03/18 09:16:37;;;;;;;;;;;;;;;19.88;38.15;100806.11;104051;1297;61936;-80
2024/03/18 09:19:02;;;;;;;;;;;;;;;19.90;38.32;100804.40;103827;1295;62200;-81
2024/03/18 09:21:28;;;;;;;;;;;;;;;19.92;38.06;100800.34;104022;1298;62188;-82
2024/03/18 09:23:54;;;;;;;;;;;;;;;19.96;38.13;100794.02;103509;1294;62239;-80
2024/03/18 09:26:20;;;;;;;;;;;;;;;19.99;37.95;100788.61;103592;1300;59923;-80
2024/03/18 09:28:46;;;;;;;;;;;;;;;19.99;38.01;100792.36;103550;1294;62266;-80
2024/03/18 09:31:11;;;;;;;;;;;;;;;19.93;37.74;100794.91;103424;1295;62195;-79
2024/03/18 09:33:37;;;;;;;;;;;;;;;19.87;37.61;100787.99;103130;1297;62217;-80
2024/03/18 09:36:03;;;;;;;;;;;;;;;19.84;37.70;100788.32;103776;1292;62095;-80
2024/03/18 09:38:30;;;;;;;;;;;;;;;19.85;37.57;100782.57;103686;1297;62182;-80
2024/03/18 09:40:59;;;;;;;;;;;;;;;19.84;37.46;100782.09;103622;1292;62072;-79
2024/03/18 09:43:25;;;;;;;;;;;;;;;19.81;37.41;100768.93;103939;1293;62081;-80
2024/03/18 09:45:52;;;;;;;;;;;;;;;19.81;37.61;100774.06;103919;1291;63268;-80
2024/03/18 09:48:18;;;;;;;;;;;;;;;19.83;37.54;100771.31;103829;1291;62014;-79
2024/03/18 09:50:43;;;;;;;;;;;;;;;19.83;37.51;100770.73;103554;1297;62082;-80
2024/03/18 09:53:10;;;;;;;;;;;;;;;19.75;37.28;100766.23;103930;1292;62227;-80
2024/03/18 09:55:36;;;;;;;;;;;;;;;19.62;37.15;100762.99;104308;1295;61470;-80
2024/03/18 09:58:01;;;;;;;;;;;;;;;19.44;36.95;100761.30;104256;1291;62200;-81
2024/03/18 10:00:27;;;;;;;;;;;;;;;19.28;37.09;100758.20;104376;1291;62624;-81
2024/03/18 10:02:52;;;;;;;;;;;;;;;19.25;37.08;100759.45;104627;1291;77227;-81
2024/03/18 10:05:18;;;;;;;;;;;;;;;19.27;37.13;100757.21;104665;1292;62170;-80
2024/03/18 10:07:45;;;;;;;;;;;;;;;19.25;37.10;100753.98;104730;1292;62208;-80
2024/03/18 10:10:15;;;;;;;;;;;;;;;19.11;37.22;100750.73;105793;1291;60233;-81
2024/03/18 10:12:41;;;;;;;;;;;;;;;19.10;37.06;100748.63;104756;1297;74745;-82
2024/03/18 10:15:08;;;;;;;;;;;;;;;19.00;36.81;100749.27;104640;1296;60201;-81
2024/03/18 10:17:34;;;;;;;;;;;;;;;18.96;37.02;100743.65;104262;1297;60203;-81
2024/03/18 10:20:09;;;;;;;;;;;;;;;18.98;37.11;100745.88;103929;1292;62281;-80
2024/03/18 10:22:35;;;;;;;;;;;;;;;18.92;37.11;100747.08;104166;1297;75365;-80
2024/03/18 10:25:01;;;;;;;;;;;;;;;18.93;37.12;100744.90;104304;1293;63484;-80
2024/03/18 10:27:26;;;;;;;;;;;;;;;18.88;37.13;100740.38;104391;1296;59773;-80
2024/03/18 10:29:53;;;;;;;;;;;;;;;18.75;37.11;100738.64;104689;1291;62133;-80
2024/03/18 10:32:25;;;;;;;;;;;;;;;18.76;37.12;100738.98;104478;1293;62864;-81
2024/03/18 10:34:51;;;;;;;;;;;;;;;18.80;37.15;100736.26;104426;1292;62070;-82
2024/03/18 10:37:17;;;;;;;;;;;;;;;18.88;37.28;100735.36;104484;1291;62727;-80
2024/03/18 10:39:46;;;;;;;;;;;;;;;18.97;37.35;100733.43;104694;1297;60783;-79
2024/03/18 10:42:14;;;;;;;;;;;;;;;19.03;37.37;100729.42;104721;1291;75100;-80
2024/03/18 10:44:40;;;;;;;;;;;;;;;19.11;37.41;100725.25;105657;1292;59945;-80
2024/03/18 10:47:05;;;;;;;;;;;;;;;19.16;37.38;100727.42;105541;1291;60228;-80
2024/03/18 10:49:31;;;;;;;;;;;;;;;19.19;37.35;100723.97;104423;1291;62239;-81
2024/03/18 10:51:56;;;;;;;;;;;;;;;19.21;37.55;100720.83;104725;1295;62072;-80
2024/03/18 10:54:22;;;;;;;;;;;;;;;19.21;37.40;100720.64;104744;1292;62144;-81
2024/03/18 10:56:47;;;;;;;;;;;;;;;19.15;37.42;100719.98;104627;1292;62207;-80
2024/03/18 10:59:14;;;;;;;;;;;;;;;19.17;37.67;100716.80;104584;1297;60832;-82
2024/03/18 11:01:40;;;;;;;;;;;;;;;19.19;37.68;100715.64;105751;1292;60368;-80
2024/03/18 11:04:17;;;;;;;;;;;;;;;19.11;37.50;100715.26;105215;1292;61347;-81
2024/03/18 11:06:46;;;;;;;;;;;;;;;19.05;37.53;100708.30;104059;1292;62123;-81
2024/03/18 11:09:12;;;;;;;;;;;;;;;18.89;37.26;100700.17;104589;1292;62162;-81
2024/03/18 11:11:37;;;;;;;;;;;;;;;18.72;37.53;100697.15;104444;1297;62195;-81
2024/03/18 11:14:03;;;;;;;;;;;;;;;18.67;37.46;100703.71;104159;1294;61971;-83
2024/03/18 11:16:31;;;;;;;;;;;;;;;18.72;37.65;100704.24;104339;1297;62192;-80
2024/03/18 11:18:57;;;;;;;;;;;;;;;18.75;37.72;100702.80;103968;1298;62094;-80
2024/03/18 11:21:23;;;;;;;;;;;;;;;18.75;37.65;100701.25;103842;1296;62203;-80
2024/03/18 11:24:00;;;;;;;;;;;;;;;18.79;37.71;100691.58;103805;1292;62114;-80
2024/03/18 11:26:26;;;;;;;;;;;;;;;18.83;37.80;100684.50;103818;1297;62067;-80
2024/03/18 11:29:00;;;;;;;;;;;;;;;18.86;37.52;100679.48;103902;1299;62110;-81
2024/03/18 11:31:25;;;;;;;;;;;;;;;18.81;37.46;100671.80;103783;1297;73589;-81
2024/03/18 11:33:51;;;;;;;;;;;;;;;18.75;37.45;100665.05;103929;1292;62147;-82
2024/03/18 11:36:17;;;;;;;;;;;;;;;18.76;37.71;100655.31;104236;1295;62216;-80
2024/03/18 11:38:42;;;;;;;;;;;;;;;18.82;37.80;100648.04;103924;1294;62316;-80
2024/03/18 11:41:08;;;;;;;;;;;;;;;18.88;37.77;100645.52;104242;1292;63508;-80
2024/03/18 11:43:33;;;;;;;;;;;;;;;18.94;37.85;100644.11;103771;1292;71379;-80
2024/03/18 11:46:00;;;;;;;;;;;;;;;18.98;37.76;100636.31;104166;1300;62162;-82
2024/03/18 11:48:26;;;;;;;;;;;;;;;19.03;37.86;100631.39;104061;1296;62111;-81
2024/03/18 11:50:52;;;;;;;;;;;;;;;19.04;37.80;100625.39;104202;1292;62179;-82
2024/03/18 11:53:20;;;;;;;;;;;;;;;19.01;37.68;100623.09;103921;1295;62416;-82
2024/03/18 11:55:49;;;;;;;;;;;;;;;19.02;37.84;100616.84;104017;1295;75034;-81
2024/03/18 11:58:15;;;;;;;;;;;;;;;19.04;37.71;100624.14;103850;1297;62053;-82
2024/03/18 12:00:40;;;;;;;;;;;;;;;19.06;37.80;100619.05;104287;1292;62199;-81
2024/03/18 12:03:06;;;;;;;;;;;;;;;19.05;37.59;100616.45;104735;1292;60934;-81
2024/03/18 12:05:32;;;;;;;;;;;;;;;19.00;37.62;100609.29;104995;1291;62280;-82
2024/03/18 12:07:58;;;;;;;;;;;;;;;18.87;37.53;100600.44;105105;1293;60441;-82
2024/03/18 12:10:23;;;;;;;;;;;;;;;18.82;37.59;100589.36;105184;1292;62087;-81
2024/03/18 12:12:49;;;;;;;;;;;;;;;18.80;37.74;100590.21;105127;1294;62115;-80
2024/03/18 12:15:14;;;;;;;;;;;;;;;18.83;37.80;100590.70;105276;1291;60382;-80
2024/03/18 12:17:42;;;;;;;;;;;;;;;18.85;37.82;100586.46;104869;1292;60961;-81
2024/03/18 12:20:18;;;;;;;;;;;;;;;18.87;37.91;100587.95;104975;1291;62125;-79
2024/03/18 12:22:43;;;;;;;;;;;;;;;18.93;37.80;100586.34;105046;1297;62032;-79
2024/03/18 12:30:57;;;;;;;;;;;;;;;19.11;37.68;100573.41;104811;1294;60748;-80